createdAt,value
2018-08-05T00:01:49.040Z,11.63
2018-08-05T00:04:17.092Z,10.80
2018-08-05T00:06:45.538Z,10.40
2018-08-05T00:09:14.033Z,9.93
2018-08-05T00:11:42.293Z,11.20
2018-08-05T00:14:10.354Z,11.30
2018-08-05T00:16:38.470Z,10.33
2018-08-05T00:19:06.603Z,10.37
2018-08-05T00:21:34.672Z,9.83
2018-08-05T00:24:03.048Z,10.80
2018-08-05T00:26:31.332Z,10.23
2018-08-05T00:28:59.576Z,11.30
2018-08-05T00:31:27.651Z,10.10
2018-08-05T00:33:55.711Z,10.50
2018-08-05T00:36:23.794Z,10.03
2018-08-05T00:38:52.083Z,10.53
2018-08-05T00:41:20.194Z,9.80
2018-08-05T00:43:48.444Z,10.30
2018-08-05T00:46:16.525Z,9.83
2018-08-05T00:48:44.661Z,10.30
2018-08-05T00:51:12.720Z,9.90
2018-08-05T00:53:40.837Z,9.03
2018-08-05T00:56:08.927Z,9.73
2018-08-05T00:58:37.058Z,10.77
2018-08-05T01:01:05.175Z,10.93
2018-08-05T01:03:33.216Z,10.40
2018-08-05T01:06:01.282Z,10.00
2018-08-05T01:08:29.744Z,11.10
2018-08-05T01:10:58.155Z,9.83
2018-08-05T01:13:26.221Z,9.97
2018-08-05T01:15:54.637Z,9.83
2018-08-05T01:18:22.797Z,9.80
2018-08-05T01:20:50.849Z,9.33
2018-08-05T01:23:18.933Z,9.40
2018-08-05T01:25:47.037Z,9.37
2018-08-05T01:28:15.127Z,10.10
2018-08-05T01:30:43.281Z,10.50
2018-08-05T01:33:11.709Z,9.80
2018-08-05T01:35:39.804Z,9.70
2018-08-05T01:38:07.900Z,9.97
2018-08-05T01:40:36.547Z,9.60
2018-08-05T01:43:05.358Z,9.50
2018-08-05T01:45:33.452Z,10.07
2018-08-05T01:48:01.744Z,9.90
2018-08-05T01:50:29.871Z,9.20
2018-08-05T01:52:58.322Z,9.73
2018-08-05T01:55:26.555Z,9.70
2018-08-05T01:57:54.989Z,10.47
2018-08-05T02:00:23.069Z,9.63
2018-08-05T02:02:51.172Z,10.37
2018-08-05T02:05:19.283Z,10.90
2018-08-05T02:07:47.339Z,10.43
2018-08-05T02:10:15.653Z,10.07
2018-08-05T02:12:43.744Z,10.70
2018-08-05T02:15:11.863Z,9.50
2018-08-05T02:17:39.917Z,9.80
2018-08-05T02:20:08.047Z,10.60
2018-08-05T02:22:36.110Z,9.97
2018-08-05T02:25:04.372Z,9.77
2018-08-05T02:27:32.428Z,10.20
2018-08-05T02:30:00.508Z,9.43
2018-08-05T02:32:28.605Z,9.53
2018-08-05T02:34:56.658Z,9.70
2018-08-05T02:37:24.816Z,8.83
2018-08-05T02:39:52.897Z,10.13
2018-08-05T02:42:21.180Z,9.40
2018-08-05T02:44:49.304Z,9.70
2018-08-05T02:47:17.733Z,9.40
2018-08-05T02:49:45.797Z,9.00
2018-08-05T02:52:14.000Z,9.20
2018-08-05T02:54:42.093Z,9.27
2018-08-05T02:57:10.382Z,9.77
2018-08-05T02:59:38.507Z,8.97
2018-08-05T03:02:06.760Z,9.00
2018-08-05T03:04:35.161Z,9.13
2018-08-05T03:07:03.257Z,8.63
2018-08-05T03:09:31.350Z,9.23
2018-08-05T03:11:59.453Z,9.60
2018-08-05T03:14:27.505Z,8.93
2018-08-05T03:16:56.404Z,8.93
2018-08-05T03:19:24.544Z,9.93
2018-08-05T03:21:52.699Z,8.83
2018-08-05T03:24:20.759Z,8.57
2018-08-05T03:26:48.850Z,9.57
2018-08-05T03:29:17.005Z,9.80
2018-08-05T03:31:45.197Z,8.80
2018-08-05T03:34:13.307Z,9.00
2018-08-05T03:36:41.464Z,9.30
2018-08-05T03:39:10.514Z,8.60
2018-08-05T03:41:38.616Z,8.90
2018-08-05T03:44:06.722Z,9.00
2018-08-05T03:46:36.676Z,8.93
2018-08-05T03:49:04.988Z,8.93
2018-08-05T03:51:33.093Z,8.53
2018-08-05T03:54:01.252Z,9.63
2018-08-05T03:56:29.417Z,9.07
2018-08-05T03:58:57.477Z,8.87
2018-08-05T04:01:25.537Z,9.00
2018-08-05T04:03:53.712Z,8.60
2018-08-05T04:06:21.924Z,8.40
2018-08-05T04:08:49.975Z,8.97
2018-08-05T04:11:18.045Z,9.20
2018-08-05T04:13:46.097Z,9.27
2018-08-05T04:16:14.520Z,9.13
2018-08-05T04:18:42.567Z,8.80
2018-08-05T04:21:10.649Z,9.30
2018-08-05T04:23:38.758Z,9.67
2018-08-05T04:26:06.807Z,8.83
2018-08-05T04:28:35.071Z,9.47
2018-08-05T04:31:03.144Z,8.80
2018-08-05T04:33:31.316Z,8.33
2018-08-05T04:35:59.381Z,10.10
2018-08-05T04:38:27.606Z,8.37
2018-08-05T04:40:55.672Z,8.00
2018-08-05T04:43:23.720Z,7.50
2018-08-05T04:45:51.860Z,7.27
2018-08-05T04:48:20.103Z,7.27
2018-08-05T04:50:48.162Z,7.10
2018-08-05T04:53:16.241Z,6.67
2018-08-05T04:55:44.391Z,6.47
2018-08-05T04:58:12.483Z,7.10
2018-08-05T05:00:40.639Z,6.83
2018-08-05T05:03:08.750Z,6.13
2018-08-05T05:05:36.839Z,5.83
2018-08-05T05:08:04.889Z,7.60
2018-08-05T05:10:32.962Z,6.93
2018-08-05T05:13:01.017Z,6.77
2018-08-05T05:15:29.068Z,6.20
2018-08-05T05:17:57.131Z,6.40
2018-08-05T05:20:25.540Z,7.27
2018-08-05T05:22:53.619Z,6.07
2018-08-05T05:25:21.713Z,6.20
2018-08-05T05:27:49.821Z,6.17
2018-08-05T05:30:17.972Z,6.70
2018-08-05T05:32:46.365Z,6.07
2018-08-05T05:35:14.469Z,5.70
2018-08-05T05:37:42.584Z,5.60
2018-08-05T05:40:10.664Z,5.53
2018-08-05T05:42:39.077Z,5.87
2018-08-05T05:45:07.641Z,5.33
2018-08-05T05:47:35.712Z,5.20
2018-08-05T05:50:04.332Z,6.43
2018-08-05T05:52:32.568Z,5.60
2018-08-05T05:55:00.852Z,5.30
2018-08-05T05:57:28.935Z,5.80
2018-08-05T05:59:57.009Z,5.27
2018-08-05T06:02:25.115Z,4.87
2018-08-05T06:04:53.230Z,5.30
2018-08-05T06:07:21.285Z,5.43
2018-08-05T06:09:49.683Z,5.17
2018-08-05T06:12:17.745Z,5.13
2018-08-05T06:14:45.839Z,5.03
2018-08-05T06:17:14.116Z,4.23
2018-08-05T06:19:42.168Z,5.30
2018-08-05T06:22:10.241Z,5.20
2018-08-05T06:24:38.317Z,5.07
2018-08-05T06:27:06.378Z,4.60
2018-08-05T06:29:34.441Z,5.27
2018-08-05T06:32:02.577Z,4.93
2018-08-05T06:34:30.656Z,4.30
2018-08-05T06:36:58.718Z,5.23
2018-08-05T06:39:26.820Z,4.97
2018-08-05T06:41:54.895Z,4.60
2018-08-05T06:44:22.958Z,4.17
2018-08-05T06:46:51.048Z,4.53
2018-08-05T06:49:19.134Z,4.60
2018-08-05T06:51:47.208Z,4.50
2018-08-05T06:54:15.280Z,4.07
2018-08-05T06:56:43.392Z,4.33
2018-08-05T06:59:11.620Z,4.60
2018-08-05T07:01:39.808Z,4.20
2018-08-05T07:04:07.895Z,4.60
2018-08-05T07:06:36.010Z,3.90
2018-08-05T07:09:06.253Z,4.10
2018-08-05T07:11:34.550Z,4.30
2018-08-05T07:14:02.671Z,4.50
2018-08-05T07:16:30.745Z,4.50
2018-08-05T07:18:58.823Z,3.83
2018-08-05T07:21:27.245Z,3.70
2018-08-05T07:23:55.364Z,4.20
2018-08-05T07:26:23.422Z,4.10
2018-08-05T07:28:51.503Z,3.70
2018-08-05T07:31:19.627Z,4.23
2018-08-05T07:33:47.720Z,3.93
2018-08-05T07:36:15.979Z,4.43
2018-08-05T07:38:44.046Z,4.13
2018-08-05T07:41:12.104Z,4.27
2018-08-05T07:43:40.247Z,4.03
2018-08-05T07:46:08.509Z,4.10
2018-08-05T07:48:36.838Z,4.43
2018-08-05T07:51:04.954Z,4.50
2018-08-05T07:53:33.301Z,3.90
2018-08-05T07:56:01.679Z,4.53
2018-08-05T07:58:29.841Z,4.23
2018-08-05T08:00:57.920Z,4.07
2018-08-05T08:03:26.024Z,4.40
2018-08-05T08:05:54.060Z,4.20
2018-08-05T08:08:22.539Z,3.93
2018-08-05T08:10:50.661Z,4.37
2018-08-05T08:13:18.732Z,4.60
2018-08-05T08:15:46.821Z,4.73
2018-08-05T08:18:15.236Z,4.87
2018-08-05T08:20:43.339Z,4.70
2018-08-05T08:23:11.395Z,4.80
2018-08-05T08:25:39.508Z,4.40
2018-08-05T08:28:07.928Z,4.50
2018-08-05T08:30:36.008Z,5.10
2018-08-05T08:33:04.113Z,4.30
2018-08-05T08:35:33.015Z,4.90
2018-08-05T08:38:00.524Z,4.90
2018-08-05T08:40:28.600Z,4.90
2018-08-05T08:42:56.684Z,4.73
2018-08-05T08:45:25.148Z,4.53
2018-08-05T08:47:53.298Z,4.87
2018-08-05T08:50:21.527Z,4.70
2018-08-05T08:52:50.935Z,5.40
2018-08-05T08:55:19.004Z,5.07
2018-08-05T08:57:47.117Z,4.73
2018-08-05T09:00:15.766Z,5.43
2018-08-05T09:02:44.820Z,5.40
2018-08-05T09:05:12.965Z,5.77
2018-08-05T09:07:41.050Z,5.17
2018-08-05T09:10:10.187Z,4.50
2018-08-05T09:12:38.661Z,5.10
2018-08-05T09:15:07.165Z,4.30
2018-08-05T09:17:35.408Z,4.90
2018-08-05T09:20:03.541Z,5.30
2018-08-05T09:22:31.754Z,4.60
2018-08-05T09:24:59.833Z,5.00
2018-08-05T09:27:28.220Z,5.70
2018-08-05T09:29:56.303Z,5.80
2018-08-05T09:32:24.349Z,5.30
2018-08-05T09:34:52.514Z,5.00
2018-08-05T09:37:20.586Z,5.10
2018-08-05T09:39:48.747Z,4.97
2018-08-05T09:42:16.841Z,5.83
2018-08-05T09:44:44.949Z,5.53
2018-08-05T09:47:13.062Z,5.30
2018-08-05T09:49:41.140Z,5.90
2018-08-05T09:52:09.235Z,5.00
2018-08-05T09:54:37.300Z,5.13
2018-08-05T09:57:05.618Z,5.47
2018-08-05T09:59:33.845Z,4.70
2018-08-05T10:02:02.316Z,4.97
2018-08-05T10:04:30.461Z,5.73
2018-08-05T10:06:58.567Z,6.27
2018-08-05T10:09:26.819Z,5.23
2018-08-05T10:11:54.920Z,5.17
2018-08-05T10:14:22.994Z,4.70
2018-08-05T10:16:51.305Z,4.00
2018-08-05T10:19:19.388Z,5.10
2018-08-05T10:21:47.500Z,4.83
2018-08-05T10:24:15.588Z,4.80
2018-08-05T10:26:43.645Z,5.40
2018-08-05T10:29:11.731Z,5.20
2018-08-05T10:31:39.795Z,4.20
2018-08-05T10:34:07.929Z,4.90
2018-08-05T10:36:36.017Z,5.13
2018-08-05T10:39:05.806Z,4.37
2018-08-05T10:41:33.936Z,5.17
2018-08-05T10:44:02.012Z,4.23
2018-08-05T10:46:30.297Z,5.30
2018-08-05T10:48:58.405Z,4.63
2018-08-05T10:51:26.473Z,4.70
2018-08-05T10:53:54.548Z,4.87
2018-08-05T10:56:22.654Z,4.40
2018-08-05T10:58:50.907Z,4.50
2018-08-05T11:01:19.025Z,4.90
2018-08-05T11:03:47.124Z,4.40
2018-08-05T11:06:15.219Z,4.43
2018-08-05T11:08:43.280Z,5.43
2018-08-05T11:11:11.339Z,4.33
2018-08-05T11:13:39.413Z,4.47
2018-08-05T11:16:07.650Z,4.37
2018-08-05T11:18:35.776Z,4.10
2018-08-05T11:21:04.066Z,4.47
2018-08-05T11:23:32.372Z,4.50
2018-08-05T11:26:00.449Z,4.30
2018-08-05T11:28:28.547Z,4.17
2018-08-05T11:30:56.641Z,4.23
2018-08-05T11:33:24.751Z,4.30
2018-08-05T11:35:52.870Z,4.17
2018-08-05T11:38:20.993Z,4.23
2018-08-05T11:40:49.069Z,3.80
2018-08-05T11:43:17.365Z,4.40
2018-08-05T11:45:45.486Z,3.80
2018-08-05T11:48:13.819Z,4.40
2018-08-05T11:50:41.936Z,4.20
2018-08-05T11:53:10.409Z,4.10
2018-08-05T11:55:38.527Z,3.90
2018-08-05T11:58:06.680Z,3.90
2018-08-05T12:00:35.131Z,4.03
2018-08-05T12:03:03.651Z,3.80
2018-08-05T12:05:31.729Z,3.30
2018-08-05T12:07:59.821Z,4.00
2018-08-05T12:10:27.955Z,3.23
2018-08-05T12:12:56.034Z,3.87
2018-08-05T12:15:24.144Z,3.37
2018-08-05T12:17:52.284Z,3.60
2018-08-05T12:20:20.348Z,3.50
2018-08-05T12:22:48.456Z,3.90
2018-08-05T12:25:16.569Z,3.33
2018-08-05T12:27:44.863Z,3.33
2018-08-05T12:30:12.992Z,3.80
2018-08-05T12:32:41.082Z,3.40
2018-08-05T12:35:09.211Z,3.20
2018-08-05T12:37:37.606Z,3.60
2018-08-05T12:40:05.773Z,3.80
2018-08-05T12:42:33.880Z,3.70
2018-08-05T12:45:01.970Z,3.50
2018-08-05T12:47:30.053Z,3.73
2018-08-05T12:49:58.180Z,3.60
2018-08-05T12:52:26.447Z,3.33
2018-08-05T12:54:54.558Z,3.40
2018-08-05T12:57:22.605Z,3.83
2018-08-05T12:59:50.688Z,3.00
2018-08-05T13:02:18.949Z,3.37
2018-08-05T13:04:47.049Z,3.23
2018-08-05T13:07:15.178Z,3.20
2018-08-05T13:09:43.256Z,3.60
2018-08-05T13:12:11.372Z,3.20
2018-08-05T13:14:39.538Z,3.30
2018-08-05T13:17:08.001Z,3.53
2018-08-05T13:19:36.304Z,3.70
2018-08-05T13:22:04.461Z,3.13
2018-08-05T13:24:32.741Z,3.33
2018-08-05T13:27:00.835Z,3.00
2018-08-05T13:29:28.952Z,3.73
2018-08-05T13:31:57.073Z,2.93
2018-08-05T13:34:25.509Z,3.50
2018-08-05T13:36:53.629Z,3.40
2018-08-05T13:39:21.694Z,3.27
2018-08-05T13:41:49.788Z,3.50
2018-08-05T13:44:17.936Z,3.53
2018-08-05T13:46:46.410Z,3.43
2018-08-05T13:49:14.491Z,4.23
2018-08-05T13:51:42.564Z,3.17
2018-08-05T13:54:10.741Z,3.50
2018-08-05T13:56:38.838Z,3.37
2018-08-05T13:59:06.981Z,3.30
2018-08-05T14:01:35.081Z,3.40
2018-08-05T14:04:03.168Z,3.30
2018-08-05T14:06:31.508Z,3.50
2018-08-05T14:08:59.601Z,3.23
2018-08-05T14:11:27.712Z,3.60
2018-08-05T14:13:55.884Z,3.80
2018-08-05T14:16:24.600Z,3.67
2018-08-05T14:18:52.719Z,3.40
2018-08-05T14:21:20.806Z,3.00
2018-08-05T14:23:48.889Z,3.50
2018-08-05T14:26:16.970Z,3.93
2018-08-05T14:28:45.021Z,3.13
2018-08-05T14:31:13.146Z,3.00
2018-08-05T14:33:41.433Z,3.70
2018-08-05T14:36:09.529Z,3.57
2018-08-05T14:38:37.621Z,3.40
2018-08-05T14:41:05.750Z,3.50
2018-08-05T14:43:33.828Z,3.23
2018-08-05T14:46:01.935Z,2.97
2018-08-05T14:48:30.049Z,3.37
2018-08-05T14:50:58.362Z,3.20
2018-08-05T14:53:26.467Z,3.13
2018-08-05T14:55:54.724Z,2.87
2018-08-05T14:58:22.800Z,2.80
2018-08-05T15:00:50.900Z,3.30
2018-08-05T15:03:18.993Z,3.30
2018-08-05T15:05:47.074Z,3.47
2018-08-05T15:08:15.198Z,2.70
2018-08-05T15:10:43.514Z,3.50
2018-08-05T15:13:11.663Z,3.37
2018-08-05T15:15:39.845Z,3.43
2018-08-05T15:18:08.121Z,3.60
2018-08-05T15:20:36.298Z,3.43
2018-08-05T15:23:04.957Z,3.03
2018-08-05T15:25:33.067Z,2.97
2018-08-05T15:28:01.173Z,3.07
2018-08-05T15:30:29.312Z,3.30
2018-08-05T15:32:57.416Z,3.43
2018-08-05T15:35:25.520Z,3.27
2018-08-05T15:37:53.810Z,3.13
2018-08-05T15:40:21.937Z,4.07
2018-08-05T15:42:50.029Z,3.70
2018-08-05T15:45:18.142Z,3.47
2018-08-05T15:47:46.252Z,3.30
2018-08-05T15:50:14.360Z,2.60
2018-08-05T15:52:42.597Z,2.73
2018-08-05T15:55:10.762Z,3.30
2018-08-05T15:57:38.898Z,3.20
2018-08-05T16:00:08.227Z,3.07
2018-08-05T16:02:36.420Z,3.63
2018-08-05T16:05:04.528Z,3.10
2018-08-05T16:07:32.617Z,3.40
2018-08-05T16:10:00.706Z,3.23
2018-08-05T16:12:28.777Z,3.20
2018-08-05T16:14:56.856Z,3.03
2018-08-05T16:17:24.981Z,2.67
2018-08-05T16:19:53.135Z,3.30
2018-08-05T16:22:21.289Z,3.00
2018-08-05T16:24:49.551Z,3.10
2018-08-05T16:27:17.664Z,2.77
2018-08-05T16:29:45.852Z,3.50
2018-08-05T16:32:14.292Z,2.90
2018-08-05T16:34:42.396Z,3.57
2018-08-05T16:37:10.546Z,3.30
2018-08-05T16:39:38.642Z,3.13
2018-08-05T16:42:06.780Z,3.57
2018-08-05T16:44:35.080Z,2.73
2018-08-05T16:47:03.253Z,2.97
2018-08-05T16:49:31.347Z,2.73
2018-08-05T16:51:59.468Z,3.00
2018-08-05T16:54:27.896Z,2.80
2018-08-05T16:56:55.989Z,2.47
2018-08-05T16:59:24.204Z,2.90
2018-08-05T17:01:52.336Z,3.10
2018-08-05T17:04:20.450Z,2.70
2018-08-05T17:06:48.552Z,2.93
2018-08-05T17:09:17.088Z,2.93
2018-08-05T17:11:45.569Z,2.60
2018-08-05T17:14:14.056Z,2.90
2018-08-05T17:16:42.210Z,2.53
2018-08-05T17:19:10.636Z,3.17
2018-08-05T17:21:38.886Z,3.53
2018-08-05T17:24:07.365Z,2.90
2018-08-05T17:26:35.589Z,3.20
2018-08-05T17:29:03.737Z,2.93
2018-08-05T17:31:32.357Z,3.13
2018-08-05T17:34:00.490Z,2.80
2018-08-05T17:36:29.100Z,3.10
2018-08-05T17:38:57.189Z,2.57
2018-08-05T17:41:25.621Z,3.13
2018-08-05T17:43:53.748Z,2.40
2018-08-05T17:46:21.799Z,3.03
2018-08-05T17:48:49.892Z,2.57
2018-08-05T17:51:18.750Z,2.60
2018-08-05T17:53:46.829Z,2.90
2018-08-05T17:56:15.101Z,2.60
2018-08-05T17:58:43.208Z,2.80
2018-08-05T18:01:11.300Z,2.90
2018-08-05T18:03:39.531Z,3.00
2018-08-05T18:06:07.939Z,3.03
2018-08-05T18:08:36.000Z,2.70
2018-08-05T18:11:04.665Z,3.23
2018-08-05T18:13:33.122Z,2.97
2018-08-05T18:16:01.614Z,2.60
2018-08-05T18:18:30.384Z,2.90
2018-08-05T18:20:58.513Z,2.67
2018-08-05T18:23:27.000Z,2.53
2018-08-05T18:25:55.112Z,2.50
2018-08-05T18:28:23.560Z,2.60
2018-08-05T18:30:51.670Z,2.53
2018-08-05T18:33:19.734Z,2.30
2018-08-05T18:35:47.829Z,2.50
2018-08-05T18:38:15.900Z,2.67
2018-08-05T18:40:44.052Z,2.50
2018-08-05T18:43:12.653Z,3.37
2018-08-05T18:45:40.717Z,2.53
2018-08-05T18:48:08.832Z,2.57
2018-08-05T18:50:36.900Z,2.33
2018-08-05T18:53:05.359Z,2.23
2018-08-05T18:55:33.457Z,3.00
2018-08-05T18:58:01.884Z,2.30
2018-08-05T19:00:29.979Z,2.70
2018-08-05T19:02:58.455Z,2.40
2018-08-05T19:05:26.675Z,2.50
2018-08-05T19:07:55.319Z,2.30
2018-08-05T19:10:23.380Z,2.40
2018-08-05T19:12:51.855Z,2.40
2018-08-05T19:15:19.904Z,2.97
2018-08-05T19:17:48.028Z,2.63
2018-08-05T19:20:16.154Z,2.20
2018-08-05T19:22:44.689Z,2.70
2018-08-05T19:25:12.739Z,2.50
2018-08-05T19:27:41.193Z,2.70
2018-08-05T19:30:10.702Z,2.50
2018-08-05T19:32:38.782Z,2.40
2018-08-05T19:35:06.888Z,2.60
2018-08-05T19:37:34.997Z,2.30
2018-08-05T19:40:03.460Z,2.40
2018-08-05T19:42:31.674Z,2.80
2018-08-05T19:44:59.856Z,2.47
2018-08-05T19:47:28.008Z,2.70
2018-08-05T19:49:56.119Z,2.67
2018-08-05T19:52:24.455Z,2.37
2018-08-05T19:54:52.708Z,2.80
2018-08-05T19:57:21.491Z,2.47
2018-08-05T19:59:49.597Z,2.73
2018-08-05T20:02:18.066Z,2.43
2018-08-05T20:04:46.502Z,2.80
2018-08-05T20:07:14.674Z,2.70
2018-08-05T20:09:43.270Z,2.37
2018-08-05T20:12:11.606Z,2.50
2018-08-05T20:14:40.031Z,1.80
2018-08-05T20:17:08.762Z,2.77
2018-08-05T20:19:36.876Z,2.70
2018-08-05T20:22:05.619Z,3.40
2018-08-05T20:24:33.889Z,2.23
2018-08-05T20:27:02.055Z,2.50
2018-08-05T20:29:30.417Z,2.20
2018-08-05T20:31:58.823Z,2.80
2018-08-05T20:34:27.048Z,2.33
2018-08-05T20:36:55.130Z,2.87
2018-08-05T20:39:23.269Z,2.20
2018-08-05T20:41:51.340Z,3.10
2018-08-05T20:44:19.797Z,2.70
2018-08-05T20:46:47.860Z,2.70
2018-08-05T20:49:15.953Z,2.27
2018-08-05T20:51:44.395Z,2.57
2018-08-05T20:54:12.833Z,2.60
2018-08-05T20:56:40.920Z,2.53
2018-08-05T20:59:09.004Z,2.87
2018-08-05T21:01:37.357Z,2.87
2018-08-05T21:04:05.495Z,2.90
2018-08-05T21:06:33.589Z,2.70
2018-08-05T21:09:01.658Z,2.53
2018-08-05T21:11:29.761Z,2.90
2018-08-05T21:13:57.856Z,2.70
2018-08-05T21:16:25.974Z,2.50
2018-08-05T21:18:54.070Z,2.83
2018-08-05T21:21:22.146Z,2.90
2018-08-05T21:23:50.239Z,2.90
2018-08-05T21:26:18.496Z,2.50
2018-08-05T21:28:46.584Z,2.90
2018-08-05T21:31:14.647Z,2.70
2018-08-05T21:33:42.743Z,2.90
2018-08-05T21:36:10.862Z,2.73
2018-08-05T21:38:38.930Z,2.70
2018-08-05T21:41:07.359Z,2.53
2018-08-05T21:43:35.635Z,2.80
2018-08-05T21:46:03.708Z,3.00
2018-08-05T21:48:31.833Z,2.63
2018-08-05T21:51:00.257Z,2.63
2018-08-05T21:53:28.315Z,2.50
2018-08-05T21:55:57.197Z,2.27
2018-08-05T21:58:25.339Z,3.03
2018-08-05T22:00:53.411Z,2.47
2018-08-05T22:03:21.507Z,2.77
2018-08-05T22:05:49.568Z,3.10
2018-08-05T22:08:17.625Z,2.87
2018-08-05T22:10:45.745Z,3.30
2018-08-05T22:13:13.821Z,2.50
2018-08-05T22:15:41.885Z,3.00
2018-08-05T22:18:09.975Z,3.17
2018-08-05T22:20:38.412Z,3.20
2018-08-05T22:23:06.496Z,2.47
2018-08-05T22:25:34.572Z,2.83
2018-08-05T22:28:03.049Z,3.10
2018-08-05T22:30:31.113Z,2.90
2018-08-05T22:32:59.198Z,3.40
2018-08-05T22:35:27.242Z,4.57
2018-08-05T22:37:55.678Z,4.77
2018-08-05T22:40:24.276Z,4.97
2018-08-05T22:42:52.356Z,5.07
2018-08-05T22:45:20.397Z,4.47
2018-08-05T22:47:48.705Z,4.27
2018-08-05T22:50:17.092Z,4.23
2018-08-05T22:52:45.169Z,3.80
2018-08-05T22:55:13.242Z,3.50
2018-08-05T22:57:41.319Z,4.60
2018-08-05T23:00:11.360Z,3.50
2018-08-05T23:02:39.481Z,3.50
2018-08-05T23:05:07.929Z,3.70
2018-08-05T23:07:35.993Z,3.20
2018-08-05T23:10:09.961Z,3.00
2018-08-05T23:12:38.052Z,3.00
2018-08-05T23:15:08.134Z,3.27
2018-08-05T23:17:36.213Z,3.20
2018-08-05T23:20:05.081Z,2.97
2018-08-05T23:22:42.517Z,3.53
2018-08-05T23:25:13.017Z,3.50
2018-08-05T23:27:42.190Z,3.67
2018-08-05T23:30:11.601Z,3.40
2018-08-05T23:32:39.997Z,3.30
2018-08-05T23:35:08.150Z,3.17
2018-08-05T23:37:36.545Z,3.00
2018-08-05T23:40:05.617Z,3.37
2018-08-05T23:42:33.704Z,3.37
2018-08-05T23:45:01.768Z,3.37
2018-08-05T23:47:29.887Z,3.27
2018-08-05T23:49:57.941Z,3.47
2018-08-05T23:52:26.050Z,3.47
2018-08-05T23:54:54.112Z,3.67
2018-08-05T23:57:22.547Z,3.03
2018-08-05T23:59:50.603Z,2.97
